Time;durP1;ratioP1;P1;durP2;ratioP2;P2;SDS_P1;SDS_P2;PMS_P1;PMS_P2;Temp;Humidity;BMP_temperature;BMP_pressure;BME280_temperature;BME280_humidity;BME280_pressure;Samples;Min_cycle;Max_cycle;Signal;HPM_P1;HPM_P2
2022/04/23 00:02:20;;;;;;;12.68;8.52;;;;;;;;;;4994672;28;96010;-73
2022/04/23 00:04:47;;;;;;;9.18;8.38;;;;;;;;;;4997357;28;92328;-73
2022/04/23 00:07:13;;;;;;;9.60;8.50;;;;;;;;;;4999653;28;93481;-73
2022/04/23 00:09:40;;;;;;;10.48;9.35;;;;;;;;;;4997380;28;92187;-74
2022/04/23 00:12:06;;;;;;;12.02;9.15;;;;;;;;;;4997133;28;93401;-73
2022/04/23 00:14:34;;;;;;;16.33;9.90;;;;;;;;;;4979708;28;93597;-74
2022/04/23 00:17:01;;;;;;;13.88;9.90;;;;;;;;;;4996886;28;93218;-74
2022/04/23 00:19:27;;;;;;;11.15;9.05;;;;;;;;;;4997631;28;93216;-74
2022/04/23 00:21:53;;;;;;;15.80;9.95;;;;;;;;;;4996532;28;94009;-74
2022/04/23 00:24:20;;;;;;;10.65;9.60;;;;;;;;;;4996909;28;92387;-75
2022/04/23 00:26:46;;;;;;;15.10;10.45;;;;;;;;;;4998428;28;94605;-74
2022/04/23 00:29:12;;;;;;;10.68;9.73;;;;;;;;;;4996054;28;92291;-73
2022/04/23 00:31:41;;;;;;;9.85;8.95;;;;;;;;;;4996896;28;93282;-73
2022/04/23 00:34:07;;;;;;;13.20;9.82;;;;;;;;;;4996737;28;92274;-74
2022/04/23 00:36:34;;;;;;;11.20;9.60;;;;;;;;;;4996248;28;93166;-74
2022/04/23 00:39:00;;;;;;;14.77;10.90;;;;;;;;;;4997087;28;94092;-74
2022/04/23 00:41:46;;;;;;;11.07;9.93;;;;;;;;;;4995023;28;93469;-73
2022/04/23 00:44:13;;;;;;;14.05;10.65;;;;;;;;;;4997291;28;91704;-74
2022/04/23 00:46:40;;;;;;;11.57;10.48;;;;;;;;;;4995893;28;93201;-75
2022/04/23 00:49:06;;;;;;;13.27;10.52;;;;;;;;;;4998550;28;93513;-73
2022/04/23 00:51:33;;;;;;;12.43;11.23;;;;;;;;;;4994561;28;94644;-73
2022/04/23 00:54:04;;;;;;;13.60;11.13;;;;;;;;;;4995534;28;95306;-73
2022/04/23 00:56:34;;;;;;;17.87;11.07;;;;;;;;;;4995682;28;92296;-73
2022/04/23 00:59:02;;;;;;;15.23;11.85;;;;;;;;;;4996000;28;93478;-74
2022/04/23 01:01:29;;;;;;;13.15;11.75;;;;;;;;;;4995227;28;93518;-73
2022/04/23 01:03:57;;;;;;;12.27;11.00;;;;;;;;;;4995937;28;92601;-73
2022/04/23 01:06:24;;;;;;;12.40;11.10;;;;;;;;;;4961891;28;94419;-74
2022/04/23 01:08:50;;;;;;;15.02;12.52;;;;;;;;;;4996039;28;92940;-73
2022/04/23 01:11:17;;;;;;;13.18;11.75;;;;;;;;;;4998737;28;92520;-73
2022/04/23 01:13:44;;;;;;;14.15;12.25;;;;;;;;;;4998975;28;93696;-73
2022/04/23 01:16:10;;;;;;;14.57;13.05;;;;;;;;;;4979444;28;94856;-74
2022/04/23 01:18:41;;;;;;;18.25;12.93;;;;;;;;;;4999140;28;95776;-73
2022/04/23 01:21:10;;;;;;;16.75;13.60;;;;;;;;;;4997436;28;92633;-73
2022/04/23 01:23:40;;;;;;;16.75;13.18;;;;;;;;;;5005398;28;92128;-74
2022/04/23 01:26:08;;;;;;;17.90;13.27;;;;;;;;;;4998875;28;94805;-74
2022/04/23 01:28:35;;;;;;;16.20;14.50;;;;;;;;;;4998490;28;93797;-74
2022/04/23 01:31:03;;;;;;;16.58;13.95;;;;;;;;;;4981139;28;93480;-73
2022/04/23 01:33:30;;;;;;;14.60;12.65;;;;;;;;;;5002286;28;93563;-73
2022/04/23 01:35:57;;;;;;;17.63;13.80;;;;;;;;;;4998819;28;93041;-73
2022/04/23 01:38:23;;;;;;;17.27;13.82;;;;;;;;;;4998855;28;93590;-74
2022/04/23 01:40:49;;;;;;;17.48;14.55;;;;;;;;;;4996856;28;96063;-74
2022/04/23 01:43:16;;;;;;;15.32;13.73;;;;;;;;;;4998625;28;92467;-73
2022/04/23 01:45:44;;;;;;;19.35;14.13;;;;;;;;;;4998454;28;92903;-74
2022/04/23 01:48:11;;;;;;;20.30;14.88;;;;;;;;;;4998589;28;93658;-74
2022/04/23 01:50:37;;;;;;;17.73;15.35;;;;;;;;;;4998651;28;92424;-73
2022/04/23 01:53:04;;;;;;;17.02;15.18;;;;;;;;;;4998693;28;93700;-73
2022/04/23 01:55:30;;;;;;;17.48;15.68;;;;;;;;;;5001366;28;93090;-73
2022/04/23 01:57:57;;;;;;;17.38;15.57;;;;;;;;;;4998742;28;94005;-73
2022/04/23 02:00:23;;;;;;;21.25;15.65;;;;;;;;;;4998335;28;93677;-73
2022/04/23 02:02:50;;;;;;;20.20;15.10;;;;;;;;;;4998357;28;92182;-74
2022/04/23 02:05:16;;;;;;;19.15;16.27;;;;;;;;;;4996870;28;94620;-73
2022/04/23 02:07:43;;;;;;;20.73;16.35;;;;;;;;;;4998349;28;94232;-73
2022/04/23 02:10:11;;;;;;;18.58;16.52;;;;;;;;;;4998253;28;92268;-74
2022/04/23 02:12:40;;;;;;;23.63;17.67;;;;;;;;;;4997421;28;93541;-74
2022/04/23 02:15:08;;;;;;;22.45;17.70;;;;;;;;;;4998172;28;93626;-73
2022/04/23 02:17:35;;;;;;;20.65;17.65;;;;;;;;;;5001262;28;92303;-73
2022/04/23 02:20:03;;;;;;;22.05;17.55;;;;;;;;;;4998107;28;93713;-74
2022/04/23 02:22:29;;;;;;;21.50;17.98;;;;;;;;;;4998578;28;91625;-73
2022/04/23 02:24:56;;;;;;;22.30;19.58;;;;;;;;;;4996694;28;92315;-74
2022/04/23 02:27:23;;;;;;;21.92;18.48;;;;;;;;;;4997853;28;93786;-74
2022/04/23 02:29:53;;;;;;;21.48;18.13;;;;;;;;;;4979148;28;94787;-74
2022/04/23 02:32:20;;;;;;;22.75;19.33;;;;;;;;;;4997621;28;96764;-73
2022/04/23 02:34:46;;;;;;;26.15;20.27;;;;;;;;;;4980053;28;94767;-73
2022/04/23 02:37:13;;;;;;;20.42;17.70;;;;;;;;;;5001030;28;92240;-74
2022/04/23 02:39:40;;;;;;;24.30;19.90;;;;;;;;;;4977842;28;93019;-74
2022/04/23 02:42:09;;;;;;;25.30;20.83;;;;;;;;;;4997779;28;92295;-73
2022/04/23 02:44:35;;;;;;;23.70;21.15;;;;;;;;;;4995261;28;93564;-73
2022/04/23 02:47:04;;;;;;;26.85;21.55;;;;;;;;;;4997656;28;92963;-74
2022/04/23 02:49:30;;;;;;;26.88;20.58;;;;;;;;;;4997545;28;92372;-74
2022/04/23 02:51:57;;;;;;;26.60;21.50;;;;;;;;;;4997814;28;93525;-73
2022/04/23 02:54:23;;;;;;;29.65;21.60;;;;;;;;;;4995930;28;96217;-74
2022/04/23 02:56:50;;;;;;;24.08;21.38;;;;;;;;;;4997219;28;92229;-73
2022/04/23 02:59:17;;;;;;;26.50;21.77;;;;;;;;;;5000551;28;93381;-73
2022/04/23 03:01:43;;;;;;;27.45;22.83;;;;;;;;;;4945701;28;93393;-73
2022/04/23 03:04:10;;;;;;;28.65;22.45;;;;;;;;;;4996943;28;92662;-73
2022/04/23 03:06:37;;;;;;;24.35;21.80;;;;;;;;;;4997297;28;92907;-73
2022/04/23 03:09:03;;;;;;;28.92;22.63;;;;;;;;;;4980022;28;92418;-74
2022/04/23 03:11:30;;;;;;;25.10;21.52;;;;;;;;;;4997783;28;93752;-73
2022/04/23 03:13:58;;;;;;;27.08;23.48;;;;;;;;;;4996931;28;94089;-74
2022/04/23 03:16:28;;;;;;;28.70;23.38;;;;;;;;;;4997823;28;92382;-74
2022/04/23 03:18:58;;;;;;;28.40;23.40;;;;;;;;;;4996608;28;94539;-74
2022/04/23 03:21:25;;;;;;;27.15;23.48;;;;;;;;;;5000337;28;93662;-73
2022/04/23 03:23:52;;;;;;;35.60;22.63;;;;;;;;;;4997081;28;93414;-74
2022/04/23 03:26:18;;;;;;;28.80;23.90;;;;;;;;;;4996799;28;93777;-74
2022/04/23 03:28:44;;;;;;;29.95;24.95;;;;;;;;;;4997180;28;92304;-74
2022/04/23 03:31:11;;;;;;;27.25;24.02;;;;;;;;;;4997050;28;93086;-74
2022/04/23 03:33:38;;;;;;;26.83;23.88;;;;;;;;;;4997239;28;93092;-74
2022/04/23 03:36:05;;;;;;;27.77;23.48;;;;;;;;;;4997286;28;91596;-74
2022/04/23 03:38:31;;;;;;;30.10;23.92;;;;;;;;;;4994184;28;92492;-74
2022/04/23 03:40:58;;;;;;;29.00;24.85;;;;;;;;;;4997076;28;93076;-73
2022/04/23 03:43:25;;;;;;;29.45;24.73;;;;;;;;;;4998476;28;94645;-74
2022/04/23 03:45:52;;;;;;;29.25;24.85;;;;;;;;;;4996337;28;93371;-73
2022/04/23 03:48:19;;;;;;;32.05;24.60;;;;;;;;;;4996819;28;92350;-73
2022/04/23 03:50:47;;;;;;;28.73;24.77;;;;;;;;;;4995662;28;94443;-73
2022/04/23 03:53:13;;;;;;;31.33;24.45;;;;;;;;;;4996479;28;93516;-74
2022/04/23 03:55:40;;;;;;;32.35;25.88;;;;;;;;;;4996554;28;93046;-73
2022/04/23 03:58:07;;;;;;;30.27;24.73;;;;;;;;;;4996622;28;93855;-74
2022/04/23 04:00:34;;;;;;;28.88;24.30;;;;;;;;;;4996452;28;93000;-74
2022/04/23 04:03:00;;;;;;;33.78;25.17;;;;;;;;;;4996458;28;92650;-74
2022/04/23 04:05:28;;;;;;;32.78;25.25;;;;;;;;;;4981594;28;94654;-73
2022/04/23 04:07:54;;;;;;;30.08;25.60;;;;;;;;;;4994923;28;94770;-73
2022/04/23 04:10:22;;;;;;;28.92;24.92;;;;;;;;;;4996358;28;95906;-74
2022/04/23 04:12:49;;;;;;;30.65;24.85;;;;;;;;;;4995884;28;93336;-73
2022/04/23 04:15:16;;;;;;;30.23;25.92;;;;;;;;;;4996157;28;92204;-73
2022/04/23 04:17:43;;;;;;;28.27;25.05;;;;;;;;;;4996314;28;93194;-73
2022/04/23 04:20:11;;;;;;;31.35;25.75;;;;;;;;;;4996306;28;93220;-73
2022/04/23 04:22:41;;;;;;;29.85;25.77;;;;;;;;;;4978950;28;92381;-74
2022/04/23 04:25:08;;;;;;;30.02;25.17;;;;;;;;;;4999775;28;93424;-74
2022/04/23 04:27:35;;;;;;;34.40;26.55;;;;;;;;;;4995738;28;92347;-73
2022/04/23 04:30:07;;;;;;;30.80;26.20;;;;;;;;;;4996094;28;92679;-75
2022/04/23 04:32:34;;;;;;;29.40;26.20;;;;;;;;;;4994250;28;96137;-73
2022/04/23 04:35:00;;;;;;;32.33;27.15;;;;;;;;;;4994752;28;92344;-73
2022/04/23 04:37:29;;;;;;;34.30;26.45;;;;;;;;;;4996096;28;93512;-73
2022/04/23 04:39:56;;;;;;;30.25;26.55;;;;;;;;;;4996029;28;93736;-74
2022/04/23 04:42:22;;;;;;;34.15;27.48;;;;;;;;;;4995642;28;92392;-74
2022/04/23 04:44:49;;;;;;;33.03;26.17;;;;;;;;;;4996401;28;92828;-73
2022/04/23 04:47:16;;;;;;;35.00;27.85;;;;;;;;;;5000289;28;93208;-74
2022/04/23 04:49:43;;;;;;;33.72;24.75;;;;;;;;;;4999993;28;93451;-74
2022/04/23 04:52:09;;;;;;;34.60;27.25;;;;;;;;;;4999465;28;93542;-73
2022/04/23 04:54:36;;;;;;;30.67;25.38;;;;;;;;;;4998818;28;92341;-74
2022/04/23 04:57:03;;;;;;;33.13;25.88;;;;;;;;;;4997607;28;94767;-74
2022/04/23 04:59:33;;;;;;;30.98;26.98;;;;;;;;;;4999138;28;93832;-74
2022/04/23 05:02:00;;;;;;;35.55;27.67;;;;;;;;;;4999347;28;92121;-73
2022/04/23 05:04:27;;;;;;;33.85;28.05;;;;;;;;;;4999233;28;93352;-73
2022/04/23 05:06:53;;;;;;;32.75;26.83;;;;;;;;;;4981835;28;93649;-74
2022/04/23 05:09:19;;;;;;;31.50;26.92;;;;;;;;;;5002027;28;92395;-74
2022/04/23 05:11:46;;;;;;;34.03;26.30;;;;;;;;;;4999041;28;93395;-73
2022/04/23 05:14:12;;;;;;;32.80;26.05;;;;;;;;;;4998393;28;92265;-74
2022/04/23 05:16:38;;;;;;;34.65;27.50;;;;;;;;;;4998081;28;95254;-74
2022/04/23 05:19:05;;;;;;;32.72;26.60;;;;;;;;;;4998999;28;93229;-74
2022/04/23 05:21:31;;;;;;;32.10;26.98;;;;;;;;;;4997725;28;95283;-74
2022/04/23 05:23:58;;;;;;;29.52;25.98;;;;;;;;;;4998456;28;95504;-74
2022/04/23 05:26:24;;;;;;;29.27;24.42;;;;;;;;;;4999060;28;93880;-74
2022/04/23 05:28:51;;;;;;;27.00;24.02;;;;;;;;;;4997911;28;92335;-73
2022/04/23 05:31:17;;;;;;;29.50;23.63;;;;;;;;;;5002184;28;92947;-73
2022/04/23 05:33:43;;;;;;;25.98;23.08;;;;;;;;;;4998885;28;92300;-73
2022/04/23 05:36:10;;;;;;;28.92;23.45;;;;;;;;;;4998557;28;93852;-73
2022/04/23 05:38:36;;;;;;;25.70;21.98;;;;;;;;;;4999226;28;92755;-76
2022/04/23 05:41:03;;;;;;;25.77;22.48;;;;;;;;;;4981083;28;92262;-74
2022/04/23 05:43:30;;;;;;;27.08;21.98;;;;;;;;;;4999093;28;92294;-74
2022/04/23 05:45:57;;;;;;;23.42;20.52;;;;;;;;;;4996980;28;96034;-74
2022/04/23 05:48:24;;;;;;;23.50;21.05;;;;;;;;;;4998606;28;92372;-74
2022/04/23 05:50:50;;;;;;;22.27;20.17;;;;;;;;;;4997172;28;94333;-74
2022/04/23 05:53:17;;;;;;;21.23;18.98;;;;;;;;;;4949590;28;93233;-73
2022/04/23 05:55:43;;;;;;;21.77;19.60;;;;;;;;;;4998162;28;92776;-74
2022/04/23 05:58:10;;;;;;;21.10;19.00;;;;;;;;;;4998590;28;93549;-73
2022/04/23 06:00:36;;;;;;;21.05;18.85;;;;;;;;;;4998425;28;92314;-74
2022/04/23 06:03:03;;;;;;;21.30;19.10;;;;;;;;;;4998887;28;93566;-74
2022/04/23 06:05:29;;;;;;;19.20;17.38;;;;;;;;;;4997810;28;92582;-74
2022/04/23 06:07:56;;;;;;;22.83;18.52;;;;;;;;;;4998173;28;92191;-74
2022/04/23 06:10:22;;;;;;;20.23;17.35;;;;;;;;;;4997034;28;94794;-74
2022/04/23 06:12:48;;;;;;;18.90;17.10;;;;;;;;;;4996882;28;94716;-74
2022/04/23 06:15:15;;;;;;;19.50;17.55;;;;;;;;;;5001472;28;92238;-74
2022/04/23 06:17:41;;;;;;;20.13;16.48;;;;;;;;;;4998244;28;93310;-74
2022/04/23 06:20:08;;;;;;;18.80;16.88;;;;;;;;;;4997674;28;92314;-75
2022/04/23 06:22:34;;;;;;;18.13;16.42;;;;;;;;;;4997986;28;93574;-74
2022/04/23 06:25:01;;;;;;;21.40;17.50;;;;;;;;;;4998209;28;93167;-74
2022/04/23 06:27:30;;;;;;;18.35;16.55;;;;;;;;;;4998523;28;91513;-74
2022/04/23 06:29:56;;;;;;;19.00;17.20;;;;;;;;;;4998393;28;92249;-74
2022/04/23 06:32:22;;;;;;;18.67;16.90;;;;;;;;;;4997959;28;93642;-73
2022/04/23 06:34:49;;;;;;;17.90;16.20;;;;;;;;;;4998898;28;94793;-75
2022/04/23 06:37:19;;;;;;;18.83;17.13;;;;;;;;;;4984156;28;93674;-74
2022/04/23 06:39:45;;;;;;;21.02;17.42;;;;;;;;;;4998652;28;92406;-72
2022/04/23 06:42:11;;;;;;;18.40;16.70;;;;;;;;;;4997699;28;93050;-74
2022/04/23 06:44:38;;;;;;;19.08;17.33;;;;;;;;;;4946048;28;92944;-74
2022/04/23 06:47:06;;;;;;;19.17;17.17;;;;;;;;;;4997404;28;92352;-74
2022/04/23 06:49:32;;;;;;;20.13;18.13;;;;;;;;;;4994455;28;93651;-73
2022/04/23 06:51:58;;;;;;;19.00;17.13;;;;;;;;;;4998068;28;92321;-73
2022/04/23 06:54:25;;;;;;;19.05;17.20;;;;;;;;;;4997641;28;92277;-73
2022/04/23 06:56:52;;;;;;;19.45;17.38;;;;;;;;;;4979292;28;93389;-73
2022/04/23 06:59:18;;;;;;;18.02;16.38;;;;;;;;;;4976200;28;94600;-73
2022/04/23 07:01:44;;;;;;;18.88;17.08;;;;;;;;;;4977401;28;95383;-72
2022/04/23 07:04:11;;;;;;;20.80;16.73;;;;;;;;;;4977247;28;93869;-73
2022/04/23 07:06:38;;;;;;;21.80;16.88;;;;;;;;;;4977536;28;92243;-73
2022/04/23 07:09:05;;;;;;;19.10;17.27;;;;;;;;;;4981694;28;93633;-73
2022/04/23 07:11:31;;;;;;;23.42;18.25;;;;;;;;;;4982260;28;94078;-73
2022/04/23 07:13:58;;;;;;;18.92;16.80;;;;;;;;;;4986102;28;92490;-73
2022/04/23 07:16:24;;;;;;;19.92;18.02;;;;;;;;;;4987807;28;94530;-73
2022/04/23 07:18:54;;;;;;;19.13;17.15;;;;;;;;;;4986322;28;93562;-73
2022/04/23 07:21:21;;;;;;;27.63;17.00;;;;;;;;;;4996703;28;93562;-72
2022/04/23 07:24:03;;;;;;;19.20;17.20;;;;;;;;;;4986500;28;96138;-75
2022/04/23 07:26:30;;;;;;;19.50;17.30;;;;;;;;;;4979005;28;93270;-73
2022/04/23 07:28:57;;;;;;;22.17;16.63;;;;;;;;;;4987891;28;92770;-72
2022/04/23 07:31:24;;;;;;;21.50;17.00;;;;;;;;;;4984803;28;92750;-72
2022/04/23 07:39:21;;;;;;;18.70;16.80;;;;;;;;;;4983363;28;93126;-73
2022/04/23 07:41:48;;;;;;;18.80;16.77;;;;;;;;;;4988968;28;91651;-72
2022/04/23 07:44:15;;;;;;;16.85;15.23;;;;;;;;;;4986185;28;94682;-74
2022/04/23 07:46:42;;;;;;;18.88;17.05;;;;;;;;;;4983486;28;92392;-72
2022/04/23 07:49:09;;;;;;;19.35;17.35;;;;;;;;;;4985082;28;95672;-76
2022/04/23 07:51:40;;;;;;;19.70;16.55;;;;;;;;;;4984848;28;94918;-73
2022/04/23 07:54:07;;;;;;;19.55;17.63;;;;;;;;;;4987820;28;93478;-74
2022/04/23 07:56:35;;;;;;;17.55;15.85;;;;;;;;;;4996853;28;93567;-74
2022/04/23 07:59:04;;;;;;;19.10;17.20;;;;;;;;;;4982581;28;92996;-73
2022/04/23 08:01:30;;;;;;;18.23;16.35;;;;;;;;;;5000375;28;92315;-74
2022/04/23 08:03:57;;;;;;;20.02;16.58;;;;;;;;;;5010261;28;93198;-75
2022/04/23 08:06:23;;;;;;;18.67;16.67;;;;;;;;;;5005665;28;91560;-74
2022/04/23 08:08:50;;;;;;;18.40;16.55;;;;;;;;;;4986281;28;93308;-74
2022/04/23 08:11:16;;;;;;;18.08;16.25;;;;;;;;;;5006328;28;93537;-75
2022/04/23 08:13:43;;;;;;;19.45;17.30;;;;;;;;;;5002853;28;94602;-74
2022/04/23 08:16:09;;;;;;;18.05;16.25;;;;;;;;;;5007363;28;95247;-75
2022/04/23 08:18:38;;;;;;;20.95;16.92;;;;;;;;;;5000722;28;93506;-74
2022/04/23 08:21:11;;;;;;;20.50;16.42;;;;;;;;;;4999552;28;92284;-75
2022/04/23 08:23:37;;;;;;;19.10;17.15;;;;;;;;;;4996802;28;93567;-73
2022/04/23 08:26:05;;;;;;;18.35;16.30;;;;;;;;;;5009003;28;93803;-74
2022/04/23 08:31:16;;;;;;;19.40;17.08;;;;;;;;;;5001633;28;92968;-74
2022/04/23 08:34:00;;;;;;;19.30;17.40;;;;;;;;;;5006940;28;93173;-73
2022/04/23 08:36:29;;;;;;;18.20;16.40;;;;;;;;;;4977569;28;94524;-74
2022/04/23 08:38:59;;;;;;;20.10;17.92;;;;;;;;;;5001099;28;96047;-73
2022/04/23 08:41:29;;;;;;;19.90;17.80;;;;;;;;;;5005976;28;92462;-76
2022/04/23 08:44:05;;;;;;;19.15;17.35;;;;;;;;;;5004244;28;93425;-75
2022/04/23 08:46:32;;;;;;;19.73;17.90;;;;;;;;;;5008765;28;93486;-74
2022/04/23 08:49:09;;;;;;;18.95;16.67;;;;;;;;;;5006230;28;92854;-74
2022/04/23 08:51:36;;;;;;;18.92;17.00;;;;;;;;;;5002286;28;93435;-74
2022/04/23 08:54:08;;;;;;;18.77;16.83;;;;;;;;;;4981255;28;92345;-74
2022/04/23 08:56:34;;;;;;;;;;;;;;;;;;5005682;28;93452;-75
2022/04/23 08:59:01;;;;;;;18.75;16.95;;;;;;;;;;5001971;28;122701;-76
2022/04/23 09:01:34;;;;;;;18.52;16.65;;;;;;;;;;5006564;28;92418;-74
2022/04/23 09:04:01;;;;;;;18.48;16.58;;;;;;;;;;5002441;28;94868;-75
2022/04/23 09:06:32;;;;;;;20.15;16.55;;;;;;;;;;5002495;28;93500;-75
2022/04/23 09:09:05;;;;;;;18.70;16.77;;;;;;;;;;5005338;28;92465;-74
2022/04/23 09:11:33;;;;;;;19.55;17.60;;;;;;;;;;5006393;28;92651;-78
2022/04/23 09:13:59;;;;;;;19.70;17.80;;;;;;;;;;5003495;28;92872;-76
2022/04/23 09:24:48;;;;;;;18.38;16.67;;;;;;;;;;5002421;28;93062;-76
2022/04/23 09:27:15;;;;;;;19.98;17.98;;;;;;;;;;5004717;28;94560;-76
2022/04/23 09:29:56;;;;;;;20.40;18.42;;;;;;;;;;4997917;28;94881;-75
2022/04/23 09:32:22;;;;;;;20.83;17.23;;;;;;;;;;5007418;28;95769;-76
2022/04/23 09:35:02;;;;;;;18.00;16.13;;;;;;;;;;5008361;28;92362;-74
2022/04/23 09:38:11;;;;;;;18.52;16.73;;;;;;;;;;4988714;28;96503;-75
2022/04/23 09:40:21;;;;;;;20.52;16.55;;;;;;;;;;5005780;28;93857;-76
2022/04/23 09:42:54;;;;;;;21.35;16.92;;;;;;;;;;4987884;28;93972;-77
2022/04/23 09:45:20;;;;;;;22.02;17.73;;;;;;;;;;5008266;28;93362;-75
2022/04/23 09:47:47;;;;;;;20.88;18.35;;;;;;;;;;5007752;28;93339;-76
2022/04/23 09:50:15;;;;;;;19.00;17.00;;;;;;;;;;5009351;28;92303;-75
2022/04/23 09:52:43;;;;;;;21.35;17.48;;;;;;;;;;5006289;28;95329;-77
2022/04/23 09:55:25;;;;;;;19.60;17.52;;;;;;;;;;5010685;28;95334;-77
2022/04/23 09:57:52;;;;;;;17.92;16.23;;;;;;;;;;5005237;28;96338;-75
2022/04/23 10:00:18;;;;;;;20.17;18.00;;;;;;;;;;5008941;28;92916;-75
2022/04/23 10:02:48;;;;;;;20.08;17.92;;;;;;;;;;5017203;28;92179;-75
2022/04/23 10:05:16;;;;;;;21.02;17.67;;;;;;;;;;4994200;28;95734;-77
2022/04/23 10:07:45;;;;;;;21.13;17.05;;;;;;;;;;5002762;28;93969;-76
2022/04/23 10:10:13;;;;;;;20.92;17.42;;;;;;;;;;4980432;28;92368;-75
2022/04/23 10:12:43;;;;;;;21.30;18.08;;;;;;;;;;5009641;28;93195;-77
2022/04/23 10:15:09;;;;;;;22.17;17.73;;;;;;;;;;5006283;28;93307;-74
2022/04/23 10:17:36;;;;;;;19.30;16.80;;;;;;;;;;5011362;28;92306;-73
2022/04/23 10:20:09;;;;;;;22.60;17.77;;;;;;;;;;5005374;28;95559;-77
2022/04/23 10:23:00;;;;;;;21.60;17.48;;;;;;;;;;4988202;28;93095;-77
2022/04/23 10:25:49;;;;;;;21.33;17.65;;;;;;;;;;5003249;28;92982;-76
2022/04/23 10:28:16;;;;;;;22.60;17.80;;;;;;;;;;5006977;28;93007;-78
2022/04/23 10:30:46;;;;;;;20.77;17.98;;;;;;;;;;5004935;28;92376;-75
2022/04/23 10:33:23;;;;;;;20.38;17.83;;;;;;;;;;4983283;28;94647;-74
2022/04/23 10:36:03;;;;;;;20.15;17.10;;;;;;;;;;5002197;28;92406;-75
2022/04/23 10:38:30;;;;;;;19.80;17.30;;;;;;;;;;5004284;28;91671;-74
2022/04/23 10:40:57;;;;;;;19.13;17.13;;;;;;;;;;5011337;28;92441;-75
2022/04/23 10:43:25;;;;;;;20.85;18.65;;;;;;;;;;5005722;28;92891;-75
2022/04/23 10:45:52;;;;;;;19.75;17.80;;;;;;;;;;4999234;28;94652;-75
2022/04/23 10:48:24;;;;;;;19.52;17.63;;;;;;;;;;5005660;28;92858;-75
2022/04/23 10:51:04;;;;;;;19.70;17.83;;;;;;;;;;5005585;28;92364;-75
2022/04/23 10:53:43;;;;;;;24.60;17.88;;;;;;;;;;5002108;28;93285;-77
2022/04/23 10:56:09;;;;;;;20.10;18.00;;;;;;;;;;5007072;28;93294;-74
2022/04/23 10:58:38;;;;;;;20.65;18.65;;;;;;;;;;5005635;28;92456;-76
2022/04/23 11:01:23;;;;;;;22.45;17.77;;;;;;;;;;5010928;28;95341;-75
2022/04/23 11:03:56;;;;;;;18.77;17.07;;;;;;;;;;5008111;28;93877;-74
2022/04/23 11:12:32;;;;;;;23.35;18.20;;;;;;;;;;4970241;28;95896;-74
2022/04/23 11:15:00;;;;;;;20.67;18.30;;;;;;;;;;5004881;28;95268;-75
2022/04/23 11:17:36;;;;;;;28.08;18.77;;;;;;;;;;5005184;28;93689;-75
2022/04/23 11:20:05;;;;;;;21.42;18.70;;;;;;;;;;5001054;28;92182;-74
2022/04/23 11:22:31;;;;;;;20.13;17.10;;;;;;;;;;5007839;28;92969;-74
2022/04/23 11:24:58;;;;;;;24.98;19.20;;;;;;;;;;5008345;28;93654;-75
2022/04/23 11:27:29;;;;;;;25.08;20.20;;;;;;;;;;5004581;28;93543;-74
2022/04/23 11:29:55;;;;;;;22.02;19.83;;;;;;;;;;5004247;28;92642;-74
2022/04/23 11:32:26;;;;;;;25.83;19.65;;;;;;;;;;5006025;28;92264;-74
2022/04/23 11:34:58;;;;;;;21.05;18.75;;;;;;;;;;5006189;28;94352;-74
2022/04/23 11:37:32;;;;;;;30.83;19.65;;;;;;;;;;5002169;28;96508;-74
2022/04/23 11:40:05;;;;;;;21.55;19.33;;;;;;;;;;5006627;28;92864;-76
2022/04/23 11:42:38;;;;;;;25.83;20.75;;;;;;;;;;4987672;28;96377;-75
2022/04/23 11:45:05;;;;;;;23.17;18.95;;;;;;;;;;5007218;28;93199;-73
2022/04/23 11:47:31;;;;;;;27.20;20.35;;;;;;;;;;5007739;28;92366;-76
2022/04/23 11:50:27;;;;;;;21.63;18.98;;;;;;;;;;5004256;28;93129;-74
2022/04/23 11:52:58;;;;;;;21.80;19.25;;;;;;;;;;4990465;28;92511;-74
2022/04/23 11:55:25;;;;;;;27.15;19.35;;;;;;;;;;5002686;28;94736;-75
2022/04/23 11:58:01;;;;;;;22.38;18.35;;;;;;;;;;4996514;28;93980;-75
2022/04/23 12:00:32;;;;;;;22.55;20.13;;;;;;;;;;4993781;28;92362;-75
2022/04/23 12:02:59;;;;;;;27.38;20.27;;;;;;;;;;4995511;28;94679;-74
2022/04/23 12:05:28;;;;;;;24.83;19.70;;;;;;;;;;4996249;28;92728;-75
2022/04/23 12:07:55;;;;;;;22.90;19.83;;;;;;;;;;4996649;28;92300;-74
2022/04/23 12:10:22;;;;;;;22.67;20.02;;;;;;;;;;4982894;28;94510;-74
2022/04/23 12:12:51;;;;;;;25.70;19.98;;;;;;;;;;4998857;28;92359;-74
2022/04/23 12:15:20;;;;;;;22.20;18.95;;;;;;;;;;4996548;28;92650;-73
2022/04/23 12:17:47;;;;;;;23.70;20.40;;;;;;;;;;4996157;28;94677;-74
2022/04/23 12:20:19;;;;;;;23.60;19.58;;;;;;;;;;4997022;28;91537;-74
2022/04/23 12:22:55;;;;;;;22.10;19.20;;;;;;;;;;4996655;28;92602;-78
2022/04/23 12:25:25;;;;;;;23.98;21.25;;;;;;;;;;4978628;28;93672;-76
2022/04/23 12:27:58;;;;;;;22.75;20.45;;;;;;;;;;4994728;28;94735;-75
2022/04/23 12:42:11;;;;;;;23.42;20.00;;;;;;;;;;4994795;28;92326;-77
2022/04/23 12:44:49;;;;;;;23.90;20.17;;;;;;;;;;4996091;28;93106;-78
2022/04/23 12:47:20;;;;;;;26.33;19.48;;;;;;;;;;4978812;28;95657;-76
2022/04/23 12:50:00;;;;;;;22.23;19.60;;;;;;;;;;4996104;28;92345;-74
2022/04/23 12:52:32;;;;;;;24.05;18.25;;;;;;;;;;4995666;28;93402;-75
2022/04/23 12:55:15;;;;;;;19.83;17.83;;;;;;;;;;4992909;28;96935;-75
2022/04/23 12:57:42;;;;;;;24.33;18.38;;;;;;;;;;4980986;28;92502;-75
2022/04/23 13:00:09;;;;;;;20.05;17.92;;;;;;;;;;4978589;28;93548;-76
2022/04/23 13:02:36;;;;;;;20.77;18.00;;;;;;;;;;4995847;28;92449;-76
2022/04/23 13:05:05;;;;;;;21.77;18.10;;;;;;;;;;4995650;28;93148;-76
2022/04/23 13:10:17;;;;;;;19.02;17.00;;;;;;;;;;5002442;28;93260;-75
2022/04/23 13:12:43;;;;;;;20.45;17.63;;;;;;;;;;5007470;28;94378;-74
2022/04/23 13:15:11;;;;;;;24.38;17.92;;;;;;;;;;4984037;28;94934;-75
2022/04/23 13:17:38;;;;;;;19.52;17.52;;;;;;;;;;5012633;28;92363;-74
2022/04/23 13:20:08;;;;;;;20.55;17.88;;;;;;;;;;5005236;28;97216;-75
2022/04/23 13:22:35;;;;;;;20.70;18.55;;;;;;;;;;5001257;28;92487;-74
2022/04/23 13:25:02;;;;;;;24.60;18.75;;;;;;;;;;5002861;28;93170;-74
2022/04/23 13:27:29;;;;;;;19.92;17.75;;;;;;;;;;5009136;28;93671;-76
2022/04/23 13:29:56;;;;;;;22.00;18.20;;;;;;;;;;5007621;28;92245;-76
2022/04/23 13:32:22;;;;;;;21.27;18.30;;;;;;;;;;5007826;28;93282;-75
2022/04/23 13:34:50;;;;;;;21.75;17.30;;;;;;;;;;5008538;28;93318;-76
2022/04/23 13:37:17;;;;;;;20.20;16.77;;;;;;;;;;5007694;28;91519;-74
2022/04/23 13:39:44;;;;;;;20.58;17.00;;;;;;;;;;5012626;28;92823;-75
2022/04/23 13:42:11;;;;;;;23.08;17.65;;;;;;;;;;5006672;28;92952;-75
2022/04/23 13:44:37;;;;;;;18.80;16.85;;;;;;;;;;5007892;28;94760;-75
2022/04/23 13:47:04;;;;;;;18.88;16.90;;;;;;;;;;4989153;28;94671;-73
2022/04/23 13:49:30;;;;;;;21.55;16.77;;;;;;;;;;5005359;28;92474;-75
2022/04/23 13:51:57;;;;;;;19.17;17.15;;;;;;;;;;5008019;28;93517;-76
2022/04/23 13:54:23;;;;;;;18.27;15.25;;;;;;;;;;5007052;28;93995;-74
2022/04/23 13:56:50;;;;;;;20.80;14.43;;;;;;;;;;5008868;28;92373;-74
2022/04/23 13:59:16;;;;;;;16.13;14.27;;;;;;;;;;5005857;28;93602;-75
2022/04/23 14:10:04;;;;;;;14.73;12.65;;;;;;;;;;4987147;28;94783;-75
2022/04/23 14:12:35;;;;;;;15.88;13.05;;;;;;;;;;5005364;28;95899;-78
2022/04/23 14:15:05;;;;;;;21.85;13.40;;;;;;;;;;5005714;28;92382;-77
2022/04/23 14:17:31;;;;;;;15.32;12.70;;;;;;;;;;5008364;28;92345;-74
2022/04/23 14:19:58;;;;;;;13.57;12.18;;;;;;;;;;5015049;28;93248;-75
2022/04/23 14:22:25;;;;;;;14.18;12.70;;;;;;;;;;5005485;28;92411;-74
2022/04/23 14:24:51;;;;;;;14.02;12.75;;;;;;;;;;4991248;28;92422;-75
2022/04/23 14:27:18;;;;;;;15.90;13.57;;;;;;;;;;5008868;28;92985;-74
2022/04/23 14:29:44;;;;;;;14.20;12.85;;;;;;;;;;5006904;28;92378;-73
2022/04/23 14:32:10;;;;;;;17.23;12.73;;;;;;;;;;5005481;28;93862;-73
2022/04/23 14:34:37;;;;;;;14.48;12.98;;;;;;;;;;5004151;28;95424;-74
2022/04/23 14:37:07;;;;;;;15.10;13.07;;;;;;;;;;5008753;28;92434;-74
2022/04/23 14:39:33;;;;;;;17.10;13.90;;;;;;;;;;5005954;28;92951;-78
2022/04/23 14:42:00;;;;;;;15.20;13.63;;;;;;;;;;5007605;28;93741;-76
2022/04/23 14:44:26;;;;;;;15.13;13.30;;;;;;;;;;4988116;28;92937;-74
2022/04/23 14:46:55;;;;;;;16.77;13.02;;;;;;;;;;5011063;28;93540;-76
2022/04/23 14:49:28;;;;;;;14.02;12.60;;;;;;;;;;4983833;28;92541;-77
2022/04/23 14:54:42;;;;;;;13.90;12.52;;;;;;;;;;5005509;28;93657;-75
2022/04/23 14:57:08;;;;;;;14.75;12.75;;;;;;;;;;5008112;28;92354;-76
2022/04/23 14:59:35;;;;;;;18.50;12.60;;;;;;;;;;5003461;28;94596;-74
2022/04/23 15:02:02;;;;;;;15.25;12.82;;;;;;;;;;5006203;28;93557;-74
2022/04/23 15:04:28;;;;;;;17.27;12.98;;;;;;;;;;4987872;28;93651;-75
2022/04/23 15:06:55;;;;;;;17.30;13.10;;;;;;;;;;5010227;28;93527;-75
2022/04/23 15:09:21;;;;;;;23.35;13.50;;;;;;;;;;5007171;28;92284;-75
2022/04/23 15:11:48;;;;;;;14.65;12.38;;;;;;;;;;5004951;28;92702;-76
2022/04/23 15:14:14;;;;;;;14.77;13.48;;;;;;;;;;5007763;28;93904;-74